Terminal Aerodrome Forecast
Issued by NWS

Home | Current Version | Previous Version | Text Only | Print | Product List | Glossary On
Versions: 1 2 3 4 5 6 7 8 9 10 11 12 13 14 15 16 17
000
FTUS43 KILX 200500
TAFBMI
TAF
KBMI 200523Z 2006/2106 18010KT P6SM SCT250
     FM201300 22013KT P6SM SCT120 BKN250
     FM201500 22015G24KT P6SM SCT040 BKN250
     FM201800 23015G24KT P6SM VCTS SCT030CB BKN050
      TEMPO 2020/2023 4SM TSRA OVC030CB
     FM210000 23010KT P6SM SCT040=

USA.gov is the U.S. government's official web portal to all federal, state and local government web resources and services.